createdAt,value
2018-03-03T00:02:25.279Z,-5.40
2018-03-03T00:04:53.574Z,-5.20
2018-03-03T00:07:22.628Z,-5.50
2018-03-03T00:09:50.943Z,-5.50
2018-03-03T00:12:20.021Z,-5.80
2018-03-03T00:14:48.356Z,-5.80
2018-03-03T00:17:16.701Z,-5.70
2018-03-03T00:19:45.816Z,-5.80
2018-03-03T00:22:26.108Z,-5.80
2018-03-03T00:24:54.399Z,-5.90
2018-03-03T00:27:22.696Z,-6.00
2018-03-03T00:29:50.998Z,-5.70
2018-03-03T00:32:20.074Z,-5.20
2018-03-03T00:34:49.145Z,-5.40
2018-03-03T00:37:17.409Z,-5.40
2018-03-03T00:39:45.729Z,-5.70
2018-03-03T00:42:14.007Z,-5.50
2018-03-03T00:44:42.339Z,-5.40
2018-03-03T00:47:10.775Z,-5.10
2018-03-03T00:49:39.819Z,-5.20
2018-03-03T00:52:08.130Z,-5.20
2018-03-03T00:54:36.399Z,-5.30
2018-03-03T00:57:04.685Z,-5.30
2018-03-03T00:59:32.983Z,-5.80
2018-03-03T01:02:02.051Z,-5.50
2018-03-03T01:04:30.377Z,-5.50
2018-03-03T01:06:59.413Z,-5.80
2018-03-03T01:09:27.714Z,-5.80
2018-03-03T01:11:55.980Z,-5.70
2018-03-03T01:14:24.304Z,-5.40
2018-03-03T01:16:52.586Z,-5.40
2018-03-03T01:19:20.900Z,-5.30
2018-03-03T01:21:49.189Z,-5.70
2018-03-03T01:24:17.488Z,-6.20
2018-03-03T01:26:46.528Z,-6.80
2018-03-03T01:29:14.827Z,-6.80
2018-03-03T01:31:43.118Z,-6.90
2018-03-03T01:34:11.414Z,-7.10
2018-03-03T01:36:39.679Z,-7.20
2018-03-03T01:39:07.971Z,-7.40
2018-03-03T01:41:37.018Z,-7.50
2018-03-03T01:44:05.324Z,-7.50
2018-03-03T01:46:33.596Z,-7.60
2018-03-03T01:49:01.863Z,-7.80
2018-03-03T01:51:42.005Z,-7.90
2018-03-03T01:54:10.291Z,-8.00
2018-03-03T01:56:38.589Z,-8.00
2018-03-03T01:59:06.864Z,-8.00
2018-03-03T02:01:35.137Z,-8.10
2018-03-03T02:04:03.417Z,-8.10
2018-03-03T02:06:31.689Z,-8.20
2018-03-03T02:09:00.006Z,-8.20
2018-03-03T02:11:29.035Z,-8.50
2018-03-03T02:13:57.324Z,-8.50
2018-03-03T02:16:25.622Z,-8.50
2018-03-03T02:18:53.868Z,-8.30
2018-03-03T02:21:22.181Z,-8.40
2018-03-03T02:23:50.452Z,-8.30
2018-03-03T02:26:18.834Z,-8.20
2018-03-03T02:28:47.115Z,-8.40
2018-03-03T02:31:15.392Z,-8.60
2018-03-03T02:33:43.708Z,-8.80
2018-03-03T02:36:12.052Z,-8.80
2018-03-03T02:38:40.313Z,-8.80
2018-03-03T02:41:08.598Z,-8.90
2018-03-03T02:43:36.858Z,-8.80
2018-03-03T02:46:05.459Z,-8.80
2018-03-03T02:48:33.716Z,-8.80
2018-03-03T02:51:02.012Z,-8.80
2018-03-03T02:53:30.290Z,-8.80
2018-03-03T02:55:58.649Z,-8.80
2018-03-03T02:58:26.929Z,-8.80
2018-03-03T03:00:55.219Z,-8.90
2018-03-03T03:03:23.512Z,-9.00
2018-03-03T03:05:51.817Z,-9.10
2018-03-03T03:08:20.103Z,-9.10
2018-03-03T03:10:48.395Z,-9.00
2018-03-03T03:13:16.663Z,-9.20
2018-03-03T03:15:44.941Z,-9.20
2018-03-03T03:18:13.208Z,-9.10
2018-03-03T03:20:42.283Z,-9.00
2018-03-03T03:23:11.324Z,-9.00
2018-03-03T03:25:39.575Z,-9.00
2018-03-03T03:28:07.855Z,-9.00
2018-03-03T03:30:36.889Z,-9.00
2018-03-03T03:33:05.171Z,-9.10
2018-03-03T03:35:33.439Z,-9.20
2018-03-03T03:38:01.775Z,-9.10
2018-03-03T03:40:30.791Z,-9.10
2018-03-03T03:42:59.054Z,-9.00
2018-03-03T03:45:27.344Z,-9.00
2018-03-03T03:47:55.616Z,-9.00
2018-03-03T03:50:23.900Z,-9.00
2018-03-03T03:52:52.187Z,-8.90
2018-03-03T03:55:20.603Z,-8.90
2018-03-03T03:57:48.860Z,-9.00
2018-03-03T04:00:17.136Z,-9.00
2018-03-03T04:02:45.443Z,-9.10
2018-03-03T04:05:13.712Z,-9.10
2018-03-03T04:07:42.010Z,-9.20
2018-03-03T04:10:11.064Z,-9.20
2018-03-03T04:12:39.460Z,-9.20
2018-03-03T04:15:07.707Z,-9.30
2018-03-03T04:17:36.006Z,-9.20
2018-03-03T04:20:04.294Z,-9.20
2018-03-03T04:22:32.617Z,-9.20
2018-03-03T04:25:01.664Z,-9.30
2018-03-03T04:27:29.940Z,-9.30
2018-03-03T04:29:58.248Z,-9.30
2018-03-03T04:32:27.288Z,-9.20
2018-03-03T04:34:55.553Z,-9.20
2018-03-03T04:37:23.914Z,-9.20
2018-03-03T04:39:52.196Z,-9.30
2018-03-03T04:42:20.488Z,-9.40
2018-03-03T04:44:48.775Z,-9.30
2018-03-03T04:47:17.105Z,-9.30
2018-03-03T04:49:45.359Z,-9.40
2018-03-03T04:52:13.630Z,-9.30
2018-03-03T04:54:41.911Z,-9.40
2018-03-03T04:57:10.185Z,-9.40
2018-03-03T04:59:56.187Z,-9.40
2018-03-03T05:05:31.819Z,-9.50
2018-03-03T05:08:05.811Z,-9.50
2018-03-03T05:10:36.748Z,-9.40
2018-03-03T05:13:05.021Z,-9.40
2018-03-03T05:18:40.259Z,-9.40
2018-03-03T05:21:14.232Z,-9.40
2018-03-03T05:23:48.241Z,-9.40
2018-03-03T05:26:33.399Z,-9.60
2018-03-03T05:29:02.656Z,-9.50
2018-03-03T05:31:37.430Z,-9.60
2018-03-03T05:34:11.584Z,-9.60
2018-03-03T05:36:39.852Z,-9.50
2018-03-03T05:42:14.500Z,-9.50
2018-03-03T05:44:48.491Z,-9.60
2018-03-03T05:47:22.609Z,-9.60
2018-03-03T05:49:56.631Z,-9.70
2018-03-03T05:52:40.715Z,-9.70
2018-03-03T05:55:15.635Z,-9.60
2018-03-03T06:01:01.500Z,-9.50
2018-03-03T06:03:34.583Z,-9.50
2018-03-03T06:09:11.151Z,-7.60
2018-03-03T06:11:40.220Z,-8.30
2018-03-03T06:14:08.488Z,-8.40
2018-03-03T06:16:36.785Z,-7.70
2018-03-03T06:19:05.054Z,-7.30
2018-03-03T06:21:33.339Z,-7.30
2018-03-03T06:24:02.429Z,-7.20
2018-03-03T06:26:31.509Z,-7.50
2018-03-03T06:28:59.788Z,-7.50
2018-03-03T06:31:28.062Z,-7.10
2018-03-03T06:33:57.112Z,-6.40
2018-03-03T06:36:25.415Z,-6.50
2018-03-03T06:38:53.713Z,-6.50
2018-03-03T06:41:22.011Z,-6.80
2018-03-03T06:43:51.067Z,-7.20
2018-03-03T06:46:19.348Z,-7.20
2018-03-03T06:48:47.704Z,-7.10
2018-03-03T06:51:16.007Z,-6.70
2018-03-03T06:53:44.295Z,-6.70
2018-03-03T06:56:12.571Z,-6.80
2018-03-03T06:58:40.884Z,-6.90
2018-03-03T07:01:09.932Z,-6.90
2018-03-03T07:03:38.193Z,-6.90
2018-03-03T07:06:06.492Z,-6.60
2018-03-03T07:08:34.760Z,-6.50
2018-03-03T07:11:03.072Z,-6.30
2018-03-03T07:13:31.336Z,-6.50
2018-03-03T07:15:59.672Z,-6.90
2018-03-03T07:18:28.672Z,-6.30
2018-03-03T07:20:56.967Z,-6.30
2018-03-03T07:23:25.253Z,-6.40
2018-03-03T07:25:53.556Z,-6.20
2018-03-03T07:28:22.606Z,-5.80
2018-03-03T07:30:50.895Z,-5.80
2018-03-03T07:33:19.231Z,-6.10
2018-03-03T07:35:48.267Z,-6.10
2018-03-03T07:38:16.577Z,-6.10
2018-03-03T07:40:44.941Z,-5.80
2018-03-03T07:43:13.222Z,-5.60
2018-03-03T07:45:41.494Z,-5.70
2018-03-03T07:48:09.788Z,-5.70
2018-03-03T07:50:38.079Z,-6.10
2018-03-03T07:53:07.211Z,-6.70
2018-03-03T07:55:35.472Z,-6.80
2018-03-03T07:58:03.752Z,-6.80
2018-03-03T08:00:32.047Z,-7.00
2018-03-03T08:03:00.327Z,-7.00
2018-03-03T08:05:28.646Z,-7.00
2018-03-03T08:07:56.945Z,-7.20
2018-03-03T08:10:26.004Z,-6.90
2018-03-03T08:12:54.324Z,-7.00
2018-03-03T08:15:23.392Z,-6.70
2018-03-03T08:17:51.678Z,-6.70
2018-03-03T08:20:20.764Z,-6.80
2018-03-03T08:22:49.084Z,-6.80
2018-03-03T08:25:17.359Z,-6.80
2018-03-03T08:27:45.668Z,-6.60
2018-03-03T08:30:13.948Z,-6.50
2018-03-03T08:32:42.298Z,-6.40
2018-03-03T08:35:10.564Z,-6.20
2018-03-03T08:37:38.860Z,-6.10
2018-03-03T08:40:07.183Z,-6.10
2018-03-03T08:42:35.461Z,-6.00
2018-03-03T08:45:04.544Z,-6.10
2018-03-03T08:47:32.828Z,-6.10
2018-03-03T08:50:01.910Z,-5.80
2018-03-03T08:52:30.299Z,-5.80
2018-03-03T08:54:58.607Z,-5.80
2018-03-03T08:57:27.657Z,-5.40
2018-03-03T08:59:55.919Z,-5.40
2018-03-03T09:02:24.228Z,-5.40
2018-03-03T09:04:52.502Z,-5.20
2018-03-03T09:07:20.800Z,-5.10
2018-03-03T09:09:49.837Z,-5.20
2018-03-03T09:12:18.152Z,-5.20
2018-03-03T09:14:47.241Z,-5.20
2018-03-03T09:17:15.550Z,-5.20
2018-03-03T09:19:44.606Z,-4.90
2018-03-03T09:22:12.912Z,-4.90
2018-03-03T09:24:41.209Z,-4.70
2018-03-03T09:27:10.254Z,-4.60
2018-03-03T09:29:38.564Z,-4.60
2018-03-03T09:32:06.845Z,-4.50
2018-03-03T09:34:35.148Z,-4.40
2018-03-03T09:37:03.486Z,-4.30
2018-03-03T09:39:31.753Z,-4.20
2018-03-03T09:42:00.099Z,-4.20
2018-03-03T09:44:28.374Z,-3.90
2018-03-03T09:46:56.676Z,-3.80
2018-03-03T09:49:24.969Z,-3.70
2018-03-03T09:51:53.352Z,-3.60
2018-03-03T09:54:21.620Z,-3.60
2018-03-03T09:56:49.920Z,-3.50
2018-03-03T09:59:18.199Z,-3.70
2018-03-03T10:01:52.331Z,-3.50
2018-03-03T10:04:15.573Z,-3.60
2018-03-03T10:06:43.877Z,-3.50
2018-03-03T10:09:12.303Z,-3.50
2018-03-03T10:11:40.559Z,-3.10
2018-03-03T10:14:08.887Z,-3.00
2018-03-03T10:16:37.160Z,-3.00
2018-03-03T10:19:05.452Z,-3.10
2018-03-03T10:21:34.496Z,-2.80
2018-03-03T10:24:02.779Z,-2.80
2018-03-03T10:26:31.176Z,-2.90
2018-03-03T10:28:59.441Z,-2.80
2018-03-03T10:31:27.776Z,-2.80
2018-03-03T10:33:56.808Z,-2.70
2018-03-03T10:36:25.108Z,-2.70
2018-03-03T10:38:53.413Z,-2.50
2018-03-03T10:41:22.491Z,-2.50
2018-03-03T10:43:50.860Z,-2.50
2018-03-03T10:46:19.139Z,-2.50
2018-03-03T10:48:47.523Z,-2.50
2018-03-03T10:51:15.800Z,-2.40
2018-03-03T10:53:44.105Z,-2.30
2018-03-03T10:56:13.135Z,-2.30
2018-03-03T10:58:41.433Z,-2.30
2018-03-03T11:01:09.836Z,-2.10
2018-03-03T11:03:38.111Z,-2.00
2018-03-03T11:06:06.404Z,-2.10
2018-03-03T11:08:35.490Z,-2.10
2018-03-03T11:11:03.797Z,-2.10
2018-03-03T11:13:32.079Z,-1.70
2018-03-03T11:16:00.521Z,-1.70
2018-03-03T11:18:28.802Z,-1.50
2018-03-03T11:20:57.133Z,-1.20
2018-03-03T11:23:25.441Z,-1.30
2018-03-03T11:25:53.712Z,-1.10
2018-03-03T11:28:22.004Z,-1.00
2018-03-03T11:30:50.288Z,-1.00
2018-03-03T11:33:18.559Z,-1.00
2018-03-03T11:35:46.852Z,-1.30
2018-03-03T11:38:15.890Z,-1.10
2018-03-03T11:40:44.183Z,-1.10
2018-03-03T11:43:12.451Z,-1.00
2018-03-03T11:45:40.751Z,-0.90
2018-03-03T11:48:09.737Z,-1.00
2018-03-03T11:50:38.040Z,-0.90
2018-03-03T11:53:06.379Z,-1.00
2018-03-03T11:55:34.658Z,-0.90
2018-03-03T11:58:02.952Z,-0.70
2018-03-03T12:00:31.224Z,-0.50
2018-03-03T12:02:59.512Z,-0.50
2018-03-03T12:05:27.783Z,-0.40
2018-03-03T12:07:56.076Z,-0.80
2018-03-03T12:10:24.352Z,-0.80
2018-03-03T12:12:52.631Z,-0.50
2018-03-03T12:15:21.027Z,-0.50
2018-03-03T12:17:49.295Z,-0.30
2018-03-03T12:20:17.580Z,-0.30
2018-03-03T12:22:46.623Z,-0.10
2018-03-03T12:25:14.987Z,-0.10
2018-03-03T12:27:43.255Z,0.00
2018-03-03T12:30:11.520Z,0.20
2018-03-03T12:32:40.563Z,0.10
2018-03-03T12:35:08.868Z,0.10
2018-03-03T12:37:37.147Z,0.20
2018-03-03T12:40:05.435Z,0.20
2018-03-03T12:42:34.495Z,0.20
2018-03-03T12:45:02.778Z,0.20
2018-03-03T12:47:31.092Z,0.40
2018-03-03T12:49:59.436Z,0.70
2018-03-03T12:52:27.697Z,0.70
2018-03-03T12:54:55.991Z,0.40
2018-03-03T12:57:24.249Z,0.60
2018-03-03T12:59:52.531Z,0.40
2018-03-03T13:02:20.806Z,0.60
2018-03-03T13:04:49.086Z,0.80
2018-03-03T13:07:17.364Z,0.70
2018-03-03T13:09:45.639Z,0.90
2018-03-03T13:12:13.912Z,1.00
2018-03-03T13:14:42.172Z,0.90
2018-03-03T13:17:10.457Z,1.20
2018-03-03T13:19:38.716Z,1.10
2018-03-03T13:22:07.082Z,1.00
2018-03-03T13:24:35.318Z,1.20
2018-03-03T13:27:03.601Z,1.40
2018-03-03T13:29:31.872Z,1.30
2018-03-03T13:32:00.177Z,1.30
2018-03-03T13:34:29.242Z,1.10
2018-03-03T13:36:57.504Z,1.10
2018-03-03T13:39:25.791Z,1.40
2018-03-03T13:41:54.067Z,1.10
2018-03-03T13:44:22.356Z,1.10
2018-03-03T13:46:51.201Z,1.00
2018-03-03T13:49:19.522Z,0.90
2018-03-03T13:51:47.792Z,1.00
2018-03-03T13:54:16.277Z,0.70
2018-03-03T13:56:44.576Z,0.80
2018-03-03T13:59:12.874Z,1.10
2018-03-03T14:01:41.155Z,1.00
2018-03-03T14:04:10.174Z,1.30
2018-03-03T14:06:38.467Z,1.20
2018-03-03T14:09:06.739Z,1.40
2018-03-03T14:11:35.177Z,1.50
2018-03-03T14:14:03.424Z,1.40
2018-03-03T14:16:31.788Z,1.50
2018-03-03T14:19:00.064Z,2.00
2018-03-03T14:21:28.347Z,2.70
2018-03-03T14:23:56.629Z,3.90
2018-03-03T14:26:24.896Z,5.60
2018-03-03T14:28:53.205Z,6.70
2018-03-03T14:31:21.567Z,6.40
2018-03-03T14:33:49.887Z,7.10
2018-03-03T14:36:18.157Z,7.90
2018-03-03T14:38:47.228Z,8.70
2018-03-03T14:41:15.521Z,8.60
2018-03-03T14:43:43.784Z,8.60
2018-03-03T14:46:12.160Z,8.90
2018-03-03T14:48:40.439Z,10.10
2018-03-03T14:51:08.736Z,9.10
2018-03-03T14:53:37.768Z,9.10
2018-03-03T14:56:06.053Z,9.10
2018-03-03T14:58:34.299Z,9.10
2018-03-03T15:01:02.735Z,8.30
2018-03-03T15:03:31.028Z,8.60
2018-03-03T15:05:59.391Z,7.80
2018-03-03T15:08:27.674Z,9.30
2018-03-03T15:10:55.949Z,8.90
2018-03-03T15:13:24.335Z,8.50
2018-03-03T15:15:52.603Z,8.10
2018-03-03T15:18:20.987Z,8.90
2018-03-03T15:20:49.260Z,8.00
2018-03-03T15:23:17.599Z,7.90
2018-03-03T15:25:45.943Z,7.90
2018-03-03T15:28:14.293Z,7.20
2018-03-03T15:30:42.567Z,8.20
2018-03-03T15:33:10.844Z,8.40
2018-03-03T15:35:39.179Z,7.80
2018-03-03T15:38:07.446Z,7.60
2018-03-03T15:40:35.727Z,7.10
2018-03-03T15:43:04.000Z,6.40
2018-03-03T15:45:32.427Z,6.60
2018-03-03T15:48:01.458Z,6.50
2018-03-03T15:50:29.743Z,6.50
2018-03-03T15:52:58.002Z,5.40
2018-03-03T15:55:26.283Z,5.10
2018-03-03T15:57:54.541Z,4.70
2018-03-03T16:00:22.809Z,5.40
2018-03-03T16:02:51.088Z,4.90
2018-03-03T16:05:19.353Z,5.10
2018-03-03T16:07:48.410Z,5.10
2018-03-03T16:10:16.672Z,5.00
2018-03-03T16:12:44.944Z,4.40
2018-03-03T16:15:13.208Z,3.10
2018-03-03T16:17:41.621Z,3.10
2018-03-03T16:20:09.882Z,2.60
2018-03-03T16:22:38.174Z,2.40
2018-03-03T16:25:06.579Z,2.30
2018-03-03T16:27:34.853Z,1.80
2018-03-03T16:30:03.128Z,1.70
2018-03-03T16:32:31.451Z,1.30
2018-03-03T16:35:00.483Z,0.70
2018-03-03T16:37:28.743Z,0.70
2018-03-03T16:39:57.095Z,0.60
2018-03-03T16:42:25.364Z,0.30
2018-03-03T16:44:53.635Z,-0.10
2018-03-03T16:47:21.931Z,-0.10
2018-03-03T16:49:50.360Z,-0.50
2018-03-03T16:52:18.672Z,-0.60
2018-03-03T16:54:46.975Z,-0.80
2018-03-03T16:57:15.276Z,-1.00
2018-03-03T16:59:43.551Z,-1.20
2018-03-03T17:02:11.868Z,-1.30
2018-03-03T17:04:40.215Z,-1.30
2018-03-03T17:07:08.495Z,-1.50
2018-03-03T17:09:36.784Z,-1.60
2018-03-03T17:12:05.063Z,-1.60
2018-03-03T17:14:33.351Z,-1.70
2018-03-03T17:17:02.396Z,-2.00
2018-03-03T17:19:30.717Z,-2.00
2018-03-03T17:21:59.005Z,-2.00
2018-03-03T17:24:28.044Z,-2.20
2018-03-03T17:26:56.363Z,-2.20
2018-03-03T17:29:24.733Z,-2.30
2018-03-03T17:31:53.095Z,-2.20
2018-03-03T17:34:21.369Z,-2.20
2018-03-03T17:36:49.676Z,-2.20
2018-03-03T17:39:17.952Z,-2.30
2018-03-03T17:41:46.422Z,-2.30
2018-03-03T17:44:14.696Z,-2.30
2018-03-03T17:46:43.004Z,-2.40
2018-03-03T17:49:12.075Z,-2.30
2018-03-03T17:51:40.349Z,-2.30
2018-03-03T17:54:08.720Z,-2.40
2018-03-03T17:56:36.985Z,-2.20
2018-03-03T17:59:05.300Z,-2.10
2018-03-03T18:01:34.343Z,-2.20
2018-03-03T18:04:02.617Z,-2.20
2018-03-03T18:06:30.952Z,-2.40
2018-03-03T18:08:59.328Z,-2.40
2018-03-03T18:11:27.609Z,-2.40
2018-03-03T18:13:56.643Z,-2.50
2018-03-03T18:16:25.049Z,-2.50
2018-03-03T18:18:53.341Z,-2.60
2018-03-03T18:21:21.608Z,-2.70
2018-03-03T18:23:49.902Z,-2.80
2018-03-03T18:26:18.187Z,-2.80
2018-03-03T18:28:47.265Z,-2.80
2018-03-03T18:31:15.561Z,-2.80
2018-03-03T18:33:43.892Z,-2.80
2018-03-03T18:36:12.185Z,-2.90
2018-03-03T18:38:40.478Z,-3.00
2018-03-03T18:41:09.525Z,-3.00
2018-03-03T18:43:37.806Z,-3.00
2018-03-03T18:46:06.120Z,-3.00
2018-03-03T18:48:35.151Z,-3.00
2018-03-03T18:51:03.460Z,-3.00
2018-03-03T18:53:31.749Z,-3.10
2018-03-03T18:56:00.840Z,-3.00
2018-03-03T18:58:29.119Z,-3.00
2018-03-03T19:00:57.390Z,-3.00
2018-03-03T19:03:25.671Z,-3.10
2018-03-03T19:05:53.944Z,-3.20
2018-03-03T19:08:22.223Z,-3.20
2018-03-03T19:10:50.516Z,-3.20
2018-03-03T19:13:18.792Z,-3.20
2018-03-03T19:15:47.848Z,-3.30
2018-03-03T19:18:16.119Z,-3.30
2018-03-03T19:20:44.419Z,-3.20
2018-03-03T19:23:12.701Z,-3.20
2018-03-03T19:25:41.021Z,-3.30
2018-03-03T19:28:10.044Z,-3.30
2018-03-03T19:30:38.357Z,-3.30
2018-03-03T19:33:06.628Z,-3.40
2018-03-03T19:35:34.929Z,-3.30
2018-03-03T19:38:04.009Z,-3.40
2018-03-03T19:40:32.485Z,-3.40
2018-03-03T19:43:00.900Z,-3.40
2018-03-03T19:45:29.958Z,-3.40
2018-03-03T19:47:58.247Z,-3.40
2018-03-03T19:50:27.321Z,-3.60
2018-03-03T19:52:55.588Z,-3.60
2018-03-03T19:55:23.899Z,-3.70
2018-03-03T19:57:52.160Z,-3.80
2018-03-03T20:00:20.453Z,-3.80
2018-03-03T20:02:48.725Z,-3.90
2018-03-03T20:05:17.026Z,-3.90
2018-03-03T20:07:45.311Z,-3.80
2018-03-03T20:10:14.341Z,-3.90
2018-03-03T20:12:43.137Z,-3.90
2018-03-03T20:15:11.250Z,-3.80
2018-03-03T20:17:40.329Z,-3.90
2018-03-03T20:20:08.653Z,-3.90
2018-03-03T20:22:36.987Z,-4.00
2018-03-03T20:25:05.268Z,-4.10
2018-03-03T20:27:33.562Z,-4.10
2018-03-03T20:30:01.849Z,-4.10
2018-03-03T20:32:30.897Z,-4.30
2018-03-03T20:34:59.190Z,-4.30
2018-03-03T20:37:28.242Z,-4.20
2018-03-03T20:39:56.621Z,-4.30
2018-03-03T20:42:24.927Z,-4.20
2018-03-03T20:44:53.200Z,-4.30
2018-03-03T20:47:21.505Z,-4.30
2018-03-03T20:49:49.821Z,-4.30
2018-03-03T20:52:18.125Z,-4.40
2018-03-03T20:54:46.938Z,-4.50
2018-03-03T20:57:15.241Z,-4.50
2018-03-03T20:59:44.275Z,-4.60
2018-03-03T21:02:12.563Z,-4.60
2018-03-03T21:04:40.847Z,-4.60
2018-03-03T21:07:09.132Z,-4.60
2018-03-03T21:09:37.430Z,-4.50
2018-03-03T21:12:10.196Z,-4.40
2018-03-03T21:14:38.483Z,-4.40
2018-03-03T21:17:06.862Z,-4.40
2018-03-03T21:19:35.173Z,-4.40
2018-03-03T21:22:04.211Z,-4.50
2018-03-03T21:24:32.509Z,-4.50
2018-03-03T21:27:00.808Z,-4.40
2018-03-03T21:29:29.098Z,-4.40
2018-03-03T21:31:58.139Z,-4.50
2018-03-03T21:34:26.416Z,-4.50
2018-03-03T21:36:54.710Z,-4.60
2018-03-03T21:39:22.984Z,-4.60
2018-03-03T21:41:51.285Z,-4.60
2018-03-03T21:44:19.567Z,-4.60
2018-03-03T21:46:48.640Z,-4.60
2018-03-03T21:49:16.911Z,-4.60
2018-03-03T21:51:45.207Z,-4.60
2018-03-03T21:54:13.594Z,-4.70
2018-03-03T21:56:41.912Z,-4.80
2018-03-03T21:59:10.236Z,-4.80
2018-03-03T22:01:38.524Z,-4.70
2018-03-03T22:04:07.611Z,-4.00
2018-03-03T22:06:35.876Z,-4.00
2018-03-03T22:09:04.201Z,-3.80
2018-03-03T22:11:32.696Z,-3.30
2018-03-03T22:14:00.955Z,-3.40
2018-03-03T22:16:30.032Z,-3.00
2018-03-03T22:18:58.312Z,-3.00
2018-03-03T22:21:26.627Z,-3.00
2018-03-03T22:23:54.896Z,-3.00
2018-03-03T22:26:23.163Z,-3.20
2018-03-03T22:28:52.237Z,-3.00
2018-03-03T22:31:20.517Z,-3.00
2018-03-03T22:33:48.879Z,-2.90
2018-03-03T22:36:17.161Z,-2.90
2018-03-03T22:38:45.444Z,-3.00
2018-03-03T22:41:13.734Z,-3.10
2018-03-03T22:43:42.026Z,-3.00
2018-03-03T22:46:10.304Z,-2.90
2018-03-03T22:48:38.596Z,-2.80
2018-03-03T22:51:06.905Z,-2.80
2018-03-03T22:53:35.187Z,-2.70
2018-03-03T22:56:03.487Z,-2.80
2018-03-03T22:58:31.759Z,-2.80
2018-03-03T23:01:00.045Z,-2.70
2018-03-03T23:03:28.411Z,-2.60
2018-03-03T23:05:58.261Z,-2.60
2018-03-03T23:08:26.645Z,-2.60
2018-03-03T23:10:55.684Z,-2.80
2018-03-03T23:13:23.996Z,-2.80
2018-03-03T23:15:53.052Z,-3.00
2018-03-03T23:18:21.343Z,-3.00
2018-03-03T23:20:49.636Z,-3.00
2018-03-03T23:23:17.952Z,-3.00
2018-03-03T23:25:46.224Z,-2.80
2018-03-03T23:28:14.551Z,-3.40
2018-03-03T23:30:42.829Z,-3.60
2018-03-03T23:33:11.127Z,-3.80
2018-03-03T23:35:39.404Z,-3.60
2018-03-03T23:38:07.764Z,-3.50
2018-03-03T23:40:36.060Z,-3.40
2018-03-03T23:43:04.335Z,-3.40
2018-03-03T23:45:33.400Z,-3.20
2018-03-03T23:48:01.762Z,-3.20
2018-03-03T23:50:30.052Z,-3.40
2018-03-03T23:52:58.364Z,-3.00
2018-03-03T23:55:26.645Z,-3.00
2018-03-03T23:57:55.696Z,-3.00
